createdAt,value
2023-02-14T00:01:40.668Z,17.70
2023-02-14T00:04:10.297Z,12.07
2023-02-14T00:06:39.035Z,12.18
2023-02-14T00:09:08.508Z,14.82
2023-02-14T00:11:36.715Z,15.77
2023-02-14T00:14:22.493Z,15.18
2023-02-14T00:16:50.731Z,14.82
2023-02-14T00:19:21.588Z,12.82
2023-02-14T00:21:50.847Z,14.85
2023-02-14T00:24:21.945Z,12.93
2023-02-14T00:26:51.174Z,15.38
2023-02-14T00:29:21.477Z,15.00
2023-02-14T00:31:49.733Z,17.67
2023-02-14T00:34:20.353Z,18.67
2023-02-14T00:36:48.892Z,18.70
2023-02-14T00:39:17.877Z,17.65
2023-02-14T00:41:46.095Z,17.75
2023-02-14T00:44:15.161Z,14.98
2023-02-14T00:46:43.777Z,13.18
2023-02-14T00:49:12.208Z,17.95
2023-02-14T00:51:41.867Z,19.75
2023-02-14T00:54:10.093Z,16.02
2023-02-14T00:56:38.293Z,16.77
2023-02-14T00:59:06.473Z,19.60
2023-02-14T01:01:34.677Z,19.48
2023-02-14T01:04:02.918Z,17.95
2023-02-14T01:06:31.112Z,20.00
2023-02-14T01:09:01.327Z,22.95
2023-02-14T01:11:30.401Z,17.67
2023-02-14T01:13:59.543Z,22.05
2023-02-14T01:16:29.428Z,21.13
2023-02-14T01:18:59.346Z,19.90
2023-02-14T01:21:30.132Z,21.08
2023-02-14T01:24:01.887Z,17.55
2023-02-14T01:26:30.291Z,20.10
2023-02-14T01:28:58.604Z,18.73
2023-02-14T01:31:28.806Z,19.33
2023-02-14T01:33:57.977Z,20.70
2023-02-14T01:36:28.188Z,24.58
2023-02-14T01:38:58.528Z,22.25
2023-02-14T01:41:30.662Z,21.85
2023-02-14T01:44:01.273Z,18.33
2023-02-14T01:46:31.206Z,18.85
2023-02-14T01:49:04.575Z,21.08
2023-02-14T01:51:34.933Z,20.90
2023-02-14T01:54:04.463Z,22.00
2023-02-14T01:56:37.942Z,24.42
2023-02-14T01:59:10.595Z,20.75
2023-02-14T02:01:39.843Z,22.05
2023-02-14T02:04:11.354Z,17.85
2023-02-14T02:06:42.615Z,21.02
2023-02-14T02:09:16.267Z,18.13
2023-02-14T02:11:46.211Z,21.13
2023-02-14T02:14:17.142Z,21.25
2023-02-14T02:17:18.033Z,20.85
2023-02-14T02:20:37.268Z,16.80
2023-02-14T02:23:31.558Z,18.35
2023-02-14T02:26:56.673Z,18.50
2023-02-14T02:30:22.014Z,20.55
2023-02-14T02:33:28.736Z,18.42
2023-02-14T02:36:13.837Z,23.13
2023-02-14T02:38:56.189Z,18.95
2023-02-14T02:41:32.300Z,22.85
2023-02-14T02:44:08.215Z,21.98
2023-02-14T02:46:50.441Z,24.35
2023-02-14T02:49:49.995Z,19.85
2023-02-14T02:52:44.714Z,30.45
2023-02-14T02:55:18.843Z,23.08
2023-02-14T02:57:48.845Z,19.27
2023-02-14T03:00:19.288Z,20.40
2023-02-14T03:03:08.028Z,19.20
2023-02-14T03:05:37.720Z,22.00
2023-02-14T03:08:07.686Z,21.95
2023-02-14T03:10:39.298Z,21.73
2023-02-14T03:13:46.747Z,22.30
2023-02-14T03:16:36.499Z,20.30
2023-02-14T03:19:30.060Z,24.08
2023-02-14T03:22:03.397Z,22.50
2023-02-14T03:24:44.978Z,16.60
2023-02-14T03:27:20.333Z,20.95
2023-02-14T03:29:58.517Z,18.33
2023-02-14T03:32:36.148Z,16.70
2023-02-14T03:35:12.906Z,15.40
2023-02-14T03:37:46.581Z,16.77
2023-02-14T03:40:22.999Z,15.77
2023-02-14T03:42:55.654Z,19.48
2023-02-14T03:45:30.873Z,18.27
2023-02-14T03:48:03.257Z,15.40
2023-02-14T03:50:33.819Z,16.75
2023-02-14T03:53:04.410Z,14.38
2023-02-14T03:55:39.866Z,15.80
2023-02-14T03:58:12.310Z,18.05
2023-02-14T04:00:42.991Z,19.98
2023-02-14T04:03:14.056Z,16.00
2023-02-14T04:05:46.670Z,17.02
2023-02-14T04:08:22.327Z,16.33
2023-02-14T04:10:52.629Z,14.52
2023-02-14T04:13:21.049Z,16.25
2023-02-14T04:15:49.296Z,14.68
2023-02-14T04:18:34.780Z,16.60
2023-02-14T04:21:03.024Z,16.52
2023-02-14T04:23:31.198Z,16.30
2023-02-14T04:26:00.880Z,10.98
2023-02-14T04:28:29.120Z,12.25
2023-02-14T04:30:57.660Z,10.30
2023-02-14T04:33:26.172Z,11.80
2023-02-14T04:35:54.383Z,15.70
2023-02-14T04:38:22.629Z,23.55
2023-02-14T04:40:50.947Z,17.88
2023-02-14T04:43:20.611Z,13.93
2023-02-14T04:45:49.069Z,13.07
2023-02-14T04:48:17.288Z,13.35
2023-02-14T04:50:45.540Z,12.15
2023-02-14T04:53:13.753Z,11.82
2023-02-14T04:55:41.931Z,12.15
2023-02-14T04:58:10.123Z,16.48
2023-02-14T05:00:39.807Z,18.60
2023-02-14T05:03:08.045Z,15.82
2023-02-14T05:05:36.279Z,16.02
2023-02-14T05:08:04.538Z,30.95
2023-02-14T05:10:32.739Z,17.98
2023-02-14T05:13:02.295Z,14.25
2023-02-14T05:15:30.533Z,16.95
2023-02-14T05:18:02.809Z,16.23
2023-02-14T05:20:31.371Z,15.13
2023-02-14T05:23:03.282Z,12.95
2023-02-14T05:25:31.678Z,13.30
2023-02-14T05:27:59.868Z,16.15
2023-02-14T05:30:29.013Z,19.85
2023-02-14T05:32:57.375Z,13.13
2023-02-14T05:35:27.030Z,14.35
2023-02-14T05:37:55.226Z,15.52
2023-02-14T05:42:50.678Z,17.80
2023-02-14T05:45:19.073Z,19.92
2023-02-14T05:47:49.387Z,21.20
2023-02-14T05:50:18.357Z,21.15
2023-02-14T05:52:47.986Z,20.92
2023-02-14T05:55:16.226Z,21.95
2023-02-14T05:57:44.444Z,20.17
2023-02-14T06:00:13.969Z,21.60
2023-02-14T06:02:42.212Z,21.70
2023-02-14T06:05:10.525Z,22.02
2023-02-14T06:07:38.771Z,20.52
2023-02-14T06:10:10.544Z,22.83
2023-02-14T06:12:38.776Z,24.38
2023-02-14T06:15:07.724Z,22.55
2023-02-14T06:17:35.934Z,24.92
2023-02-14T06:20:04.296Z,24.42
2023-02-14T06:22:32.547Z,26.02
2023-02-14T06:25:00.749Z,25.27
2023-02-14T06:27:31.737Z,25.42
2023-02-14T06:30:00.231Z,23.65
2023-02-14T06:32:28.585Z,27.70
2023-02-14T06:34:56.738Z,26.02
2023-02-14T06:37:24.954Z,25.95
2023-02-14T06:39:53.143Z,24.15
2023-02-14T06:42:21.545Z,27.33
2023-02-14T06:44:51.189Z,25.42
2023-02-14T06:47:19.387Z,29.63
2023-02-14T06:49:47.634Z,47.75
2023-02-14T06:52:15.793Z,28.48
2023-02-14T06:54:43.981Z,27.92
2023-02-14T06:57:12.197Z,33.45
2023-02-14T06:59:40.437Z,31.65
2023-02-14T07:02:11.337Z,28.92
2023-02-14T07:04:39.584Z,34.10
2023-02-14T07:07:07.780Z,69.70
2023-02-14T07:09:36.028Z,49.13
2023-02-14T07:12:04.276Z,73.22
2023-02-14T07:14:32.447Z,95.20
2023-02-14T07:17:00.680Z,183.15
2023-02-14T07:19:30.251Z,132.32
2023-02-14T07:21:58.652Z,158.85
2023-02-14T07:24:26.986Z,159.02
2023-02-14T07:26:55.186Z,143.73
2023-02-14T07:29:23.381Z,154.52
2023-02-14T07:31:51.734Z,156.77
2023-02-14T07:34:20.016Z,106.72
2023-02-14T07:36:49.586Z,137.93
2023-02-14T07:39:17.805Z,169.90
2023-02-14T07:41:46.026Z,181.38
2023-02-14T07:44:14.218Z,133.00
2023-02-14T07:46:42.403Z,212.27
2023-02-14T07:49:10.609Z,153.63
2023-02-14T07:51:38.903Z,155.27
2023-02-14T07:54:08.549Z,154.75
2023-02-14T07:56:36.827Z,153.63
2023-02-14T07:59:05.072Z,178.25
2023-02-14T08:01:33.344Z,118.88
2023-02-14T08:04:01.656Z,118.15
2023-02-14T08:06:29.979Z,94.90
2023-02-14T08:08:58.203Z,119.65
2023-02-14T08:11:45.510Z,63.65
2023-02-14T08:14:13.793Z,95.38
2023-02-14T08:16:42.018Z,91.05
2023-02-14T08:19:10.282Z,56.28
2023-02-14T08:21:38.969Z,123.80
2023-02-14T08:24:07.463Z,116.28
2023-02-14T08:26:37.640Z,81.53
2023-02-14T08:29:05.915Z,77.13
2023-02-14T08:31:36.616Z,96.97
2023-02-14T08:34:05.681Z,95.15
2023-02-14T08:36:34.962Z,75.53
2023-02-14T08:39:04.867Z,58.65
2023-02-14T08:41:33.377Z,68.88
2023-02-14T08:44:05.861Z,79.40
2023-02-14T08:46:35.091Z,109.18
2023-02-14T08:49:03.360Z,90.97
2023-02-14T08:51:31.576Z,90.35
2023-02-14T08:53:59.777Z,49.00
2023-02-14T08:56:27.977Z,73.97
2023-02-14T08:58:56.692Z,49.38
2023-02-14T09:01:26.391Z,50.38
2023-02-14T09:03:55.709Z,67.55
2023-02-14T09:06:23.956Z,34.53
2023-02-14T09:08:55.127Z,42.42
2023-02-14T09:11:25.773Z,35.63
2023-02-14T09:13:54.568Z,40.28
2023-02-14T09:16:24.081Z,47.85
2023-02-14T09:18:54.672Z,34.83
2023-02-14T09:21:25.234Z,38.22
2023-02-14T09:23:53.972Z,35.38
2023-02-14T09:26:22.782Z,40.83
2023-02-14T09:28:51.227Z,37.75
2023-02-14T09:31:21.851Z,41.15
2023-02-14T09:33:51.272Z,45.70
2023-02-14T09:36:20.863Z,37.00
2023-02-14T09:38:49.388Z,36.03
2023-02-14T09:41:50.167Z,38.35
2023-02-14T09:44:27.537Z,38.38
2023-02-14T09:47:00.633Z,43.95
2023-02-14T09:49:35.183Z,36.78
2023-02-14T09:52:08.406Z,50.45
2023-02-14T09:54:38.290Z,41.83
2023-02-14T09:57:12.547Z,46.88
2023-02-14T09:59:48.919Z,35.45
2023-02-14T10:02:37.610Z,66.28
2023-02-14T10:05:13.288Z,37.03
2023-02-14T10:07:52.870Z,36.42
2023-02-14T10:10:26.981Z,34.25
2023-02-14T10:13:00.480Z,102.53
2023-02-14T10:15:33.331Z,42.92
2023-02-14T10:18:12.203Z,54.65
2023-02-14T10:20:45.075Z,35.25
2023-02-14T10:23:30.403Z,31.85
2023-02-14T10:26:02.865Z,30.15
2023-02-14T10:28:35.875Z,31.20
2023-02-14T10:31:19.333Z,29.52
2023-02-14T10:36:28.244Z,28.88
2023-02-14T10:39:09.285Z,28.10
2023-02-14T10:41:49.185Z,25.50
2023-02-14T10:44:29.539Z,27.20
2023-02-14T10:47:04.674Z,24.42
2023-02-14T10:49:44.511Z,24.23
2023-02-14T10:52:21.771Z,40.08
2023-02-14T10:54:56.760Z,28.35
2023-02-14T10:57:30.494Z,30.75
2023-02-14T11:00:02.278Z,27.77
2023-02-14T11:02:35.806Z,29.13
2023-02-14T11:05:05.715Z,28.38
2023-02-14T11:07:34.346Z,24.35
2023-02-14T11:10:04.024Z,32.25
2023-02-14T11:12:38.385Z,26.08
2023-02-14T11:15:21.168Z,24.13
2023-02-14T11:17:50.157Z,27.60
2023-02-14T11:20:31.414Z,26.52
2023-02-14T11:22:59.613Z,22.58
2023-02-14T11:25:31.665Z,24.45
2023-02-14T11:28:03.024Z,21.67
2023-02-14T11:30:35.484Z,23.95
2023-02-14T11:33:05.822Z,23.10
2023-02-14T11:35:34.921Z,23.67
2023-02-14T11:38:06.461Z,22.33
2023-02-14T11:40:38.210Z,19.63
2023-02-14T11:43:21.278Z,128.40
2023-02-14T11:45:50.455Z,38.28
2023-02-14T11:48:36.762Z,34.17
2023-02-14T11:51:09.008Z,24.58
2023-02-14T11:53:46.074Z,28.33
2023-02-14T11:56:17.772Z,23.17
2023-02-14T11:58:50.969Z,23.23
2023-02-14T12:01:25.504Z,28.38
2023-02-14T12:03:55.977Z,21.25
2023-02-14T12:06:26.109Z,22.50
2023-02-14T12:09:13.028Z,20.67
2023-02-14T12:11:42.706Z,21.45
2023-02-14T12:14:23.095Z,22.92
2023-02-14T12:16:57.658Z,21.17
2023-02-14T12:19:34.045Z,23.10
2023-02-14T12:22:05.386Z,24.85
2023-02-14T12:24:38.103Z,35.15
2023-02-14T12:27:24.444Z,24.75
2023-02-14T12:29:55.571Z,51.28
2023-02-14T12:32:25.330Z,23.23
2023-02-14T12:35:02.036Z,23.33
2023-02-14T12:37:46.944Z,27.27
2023-02-14T12:40:23.226Z,20.58
2023-02-14T12:43:22.757Z,18.73
2023-02-14T12:46:14.850Z,17.48
2023-02-14T12:49:03.183Z,18.55
2023-02-14T12:51:36.277Z,19.45
2023-02-14T12:54:21.694Z,20.15
2023-02-14T12:56:58.759Z,19.40
2023-02-14T12:59:40.754Z,17.23
2023-02-14T13:03:02.807Z,17.38
2023-02-14T13:05:44.943Z,21.45
2023-02-14T13:08:29.480Z,24.98
2023-02-14T13:11:03.256Z,29.85
2023-02-14T13:13:42.754Z,23.10
2023-02-14T13:16:23.031Z,23.02
2023-02-14T13:18:56.027Z,19.55
2023-02-14T13:21:27.787Z,14.85
2023-02-14T13:24:03.262Z,18.92
2023-02-14T13:26:36.624Z,22.20
2023-02-14T13:29:07.365Z,22.20
2023-02-14T13:31:37.818Z,17.45
2023-02-14T13:34:16.698Z,18.27
2023-02-14T13:36:47.034Z,19.02
2023-02-14T13:39:29.346Z,16.65
2023-02-14T13:41:57.650Z,36.63
2023-02-14T13:44:45.961Z,39.03
2023-02-14T13:47:21.004Z,23.67
2023-02-14T13:49:52.508Z,19.90
2023-02-14T13:52:45.837Z,17.45
2023-02-14T13:55:19.496Z,21.38
2023-02-14T13:57:48.374Z,16.13
2023-02-14T14:00:39.207Z,16.65
2023-02-14T14:03:14.553Z,16.10
2023-02-14T14:06:00.344Z,17.35
2023-02-14T14:08:45.627Z,16.45
2023-02-14T14:11:59.680Z,16.85
2023-02-14T14:14:36.414Z,16.13
2023-02-14T14:17:26.054Z,19.98
2023-02-14T14:19:58.016Z,17.35
2023-02-14T14:22:27.324Z,16.00
2023-02-14T14:24:58.417Z,17.70
2023-02-14T14:27:30.508Z,18.33
2023-02-14T14:30:01.121Z,15.73
2023-02-14T14:32:31.879Z,15.73
2023-02-14T14:35:02.776Z,16.45
2023-02-14T14:37:33.223Z,28.92
2023-02-14T14:40:03.429Z,18.80
2023-02-14T14:42:37.061Z,19.58
2023-02-14T14:45:08.110Z,16.58
2023-02-14T14:47:42.744Z,22.42
2023-02-14T14:50:18.226Z,20.60
2023-02-14T14:52:50.252Z,22.38
2023-02-14T14:55:23.828Z,24.75
2023-02-14T14:57:54.069Z,16.35
2023-02-14T15:00:27.251Z,19.95
2023-02-14T15:03:05.105Z,22.17
2023-02-14T15:05:37.443Z,15.88
2023-02-14T15:08:22.323Z,15.80
2023-02-14T15:10:55.432Z,29.25
2023-02-14T15:13:49.666Z,20.30
2023-02-14T15:16:23.186Z,16.63
2023-02-14T15:18:53.710Z,16.30
2023-02-14T15:21:23.492Z,16.20
2023-02-14T15:23:53.975Z,15.35
2023-02-14T15:26:28.599Z,15.70
2023-02-14T15:28:59.159Z,16.58
2023-02-14T15:31:32.425Z,16.23
2023-02-14T15:36:32.742Z,18.65
2023-02-14T15:39:02.461Z,17.30
2023-02-14T15:41:31.276Z,17.80
2023-02-14T15:44:00.629Z,19.00
2023-02-14T15:46:35.837Z,18.67
2023-02-14T15:49:09.934Z,18.80
2023-02-14T15:51:40.797Z,17.52
2023-02-14T15:54:22.311Z,18.25
2023-02-14T15:56:54.654Z,20.88
2023-02-14T15:59:26.434Z,19.57
2023-02-14T16:01:59.485Z,18.70
2023-02-14T16:04:30.033Z,18.50
2023-02-14T16:07:25.875Z,21.38
2023-02-14T16:10:20.813Z,23.30
2023-02-14T16:12:57.829Z,20.63
2023-02-14T16:15:27.872Z,17.73
2023-02-14T16:17:56.218Z,20.73
2023-02-14T16:20:43.381Z,20.35
2023-02-14T16:23:36.962Z,20.42
2023-02-14T16:26:07.116Z,20.10
2023-02-14T16:28:36.900Z,24.92
2023-02-14T16:31:10.521Z,24.52
2023-02-14T16:33:41.191Z,21.85
2023-02-14T16:36:18.747Z,28.17
2023-02-14T16:38:48.522Z,26.20
2023-02-14T16:41:21.804Z,24.27
2023-02-14T16:46:21.066Z,22.55
2023-02-14T16:48:52.267Z,20.65
2023-02-14T16:51:23.460Z,20.58
2023-02-14T16:53:53.750Z,23.65
2023-02-14T16:56:27.771Z,24.02
2023-02-14T16:59:01.790Z,23.48
2023-02-14T17:01:30.377Z,22.30
2023-02-14T17:03:58.654Z,25.23
2023-02-14T17:06:28.934Z,22.60
2023-02-14T17:09:00.255Z,23.85
2023-02-14T17:11:32.631Z,24.58
2023-02-14T17:14:00.986Z,22.33
2023-02-14T17:16:32.579Z,23.63
2023-02-14T17:19:03.130Z,24.25
2023-02-14T17:21:31.805Z,25.05
2023-02-14T17:24:01.493Z,24.42
2023-02-14T17:26:29.804Z,27.33
2023-02-14T17:28:58.311Z,25.10
2023-02-14T17:31:27.916Z,27.65
2023-02-14T17:33:56.173Z,26.35
2023-02-14T17:36:25.790Z,23.67
2023-02-14T17:38:55.161Z,28.17
2023-02-14T17:41:26.944Z,26.92
2023-02-14T17:43:55.662Z,30.75
2023-02-14T17:46:23.933Z,30.75
2023-02-14T17:48:52.264Z,30.08
2023-02-14T17:51:20.841Z,28.33
2023-02-14T17:53:49.569Z,28.05
2023-02-14T17:56:20.426Z,28.02
2023-02-14T17:58:51.625Z,29.52
2023-02-14T18:01:22.702Z,47.63
2023-02-14T18:03:52.156Z,30.83
2023-02-14T18:06:21.342Z,40.08
2023-02-14T18:08:53.092Z,55.45
2023-02-14T18:11:22.634Z,45.40
2023-02-14T18:13:52.522Z,60.92
2023-02-14T18:16:21.074Z,58.92
2023-02-14T18:18:49.473Z,144.38
2023-02-14T18:21:21.164Z,119.68
2023-02-14T18:23:50.070Z,125.47
2023-02-14T18:26:19.518Z,75.07
2023-02-14T18:28:47.967Z,71.97
2023-02-14T18:31:19.038Z,108.93
2023-02-14T18:33:50.186Z,89.95
2023-02-14T18:36:20.499Z,80.22
2023-02-14T18:38:50.174Z,79.53
2023-02-14T18:41:20.377Z,123.53
2023-02-14T18:43:49.364Z,100.72
2023-02-14T18:46:21.549Z,145.07
2023-02-14T18:48:50.815Z,197.75
2023-02-14T18:51:21.315Z,177.73
2023-02-14T18:53:52.252Z,267.75
2023-02-14T18:56:22.415Z,149.75
2023-02-14T18:58:52.892Z,159.15
2023-02-14T19:01:24.614Z,221.18
2023-02-14T19:03:54.638Z,168.80
2023-02-14T19:06:23.606Z,254.95
2023-02-14T19:08:52.278Z,255.65
2023-02-14T19:11:25.147Z,186.50
2023-02-14T19:13:54.854Z,186.57
2023-02-14T19:16:27.737Z,120.03
2023-02-14T19:18:56.441Z,204.07
2023-02-14T19:21:26.715Z,176.10
2023-02-14T19:23:57.779Z,241.65
2023-02-14T19:26:29.065Z,119.55
2023-02-14T19:28:58.822Z,210.82
2023-02-14T19:31:29.517Z,173.48
2023-02-14T19:33:58.046Z,132.48
2023-02-14T19:36:26.295Z,134.82
2023-02-14T19:38:54.823Z,153.15
2023-02-14T19:41:24.553Z,162.07
2023-02-14T19:43:53.218Z,118.57
2023-02-14T19:46:22.404Z,127.57
2023-02-14T19:48:52.293Z,117.90
2023-02-14T19:51:23.596Z,154.45
2023-02-14T19:53:51.790Z,155.27
2023-02-14T19:56:21.511Z,124.15
2023-02-14T19:58:50.484Z,134.65
2023-02-14T20:01:25.415Z,101.07
2023-02-14T20:03:55.074Z,116.07
2023-02-14T20:06:24.902Z,113.20
2023-02-14T20:08:53.762Z,117.00
2023-02-14T20:11:30.404Z,79.30
2023-02-14T20:13:58.955Z,124.63
2023-02-14T20:16:28.672Z,80.65
2023-02-14T20:18:58.895Z,69.57
2023-02-14T20:21:28.629Z,37.95
2023-02-14T20:23:58.311Z,23.60
2023-02-14T20:26:27.860Z,47.33
2023-02-14T20:28:56.476Z,48.17
2023-02-14T20:31:24.881Z,57.67
2023-02-14T20:33:53.839Z,27.95
2023-02-14T20:36:23.724Z,19.63
2023-02-14T20:38:55.779Z,24.40
2023-02-14T20:41:24.232Z,27.38
2023-02-14T20:43:52.484Z,25.15
2023-02-14T20:46:20.878Z,21.10
2023-02-14T20:48:51.051Z,22.05
2023-02-14T20:51:28.386Z,21.98
2023-02-14T20:53:58.139Z,21.48
2023-02-14T20:56:26.330Z,21.90
2023-02-14T20:58:54.617Z,23.58
2023-02-14T21:01:24.820Z,25.33
2023-02-14T21:03:54.518Z,24.00
2023-02-14T21:06:24.319Z,22.30
2023-02-14T21:08:53.192Z,23.23
2023-02-14T21:11:24.313Z,21.65
2023-02-14T21:13:55.323Z,24.17
2023-02-14T21:16:24.311Z,22.98
2023-02-14T21:18:59.200Z,23.08
2023-02-14T21:21:32.720Z,24.48
2023-02-14T21:24:03.014Z,25.45
2023-02-14T21:26:32.811Z,26.05
2023-02-14T21:29:01.721Z,27.40
2023-02-14T21:31:30.147Z,29.02
2023-02-14T21:34:00.739Z,30.40
2023-02-14T21:36:31.185Z,32.88
2023-02-14T21:39:00.510Z,29.42
2023-02-14T21:41:31.673Z,37.58
2023-02-14T21:44:02.969Z,60.03
2023-02-14T21:46:32.075Z,39.05
2023-02-14T21:49:18.742Z,43.17
2023-02-14T21:51:47.803Z,43.13
2023-02-14T21:54:18.713Z,46.22
2023-02-14T21:56:47.014Z,56.20
2023-02-14T21:59:16.631Z,42.25
2023-02-14T22:01:44.985Z,85.97
2023-02-14T22:04:14.069Z,49.70
2023-02-14T22:06:43.482Z,52.53
2023-02-14T22:09:14.034Z,42.17
2023-02-14T22:11:42.734Z,33.67
2023-02-14T22:14:11.264Z,32.85
2023-02-14T22:16:41.468Z,33.03
2023-02-14T22:19:14.452Z,66.50
2023-02-14T22:21:43.647Z,35.15
2023-02-14T22:24:12.617Z,48.05
2023-02-14T22:26:41.788Z,56.35
2023-02-14T22:29:11.626Z,42.70
2023-02-14T22:31:43.354Z,40.30
2023-02-14T22:34:13.629Z,87.65
2023-02-14T22:36:42.175Z,69.50
2023-02-14T22:39:11.897Z,74.72
2023-02-14T22:41:40.123Z,56.08
2023-02-14T22:44:08.711Z,109.80
2023-02-14T22:46:37.886Z,177.23
2023-02-14T22:49:08.510Z,125.05
2023-02-14T22:51:38.690Z,172.82
2023-02-14T22:54:08.822Z,86.93
2023-02-14T22:56:39.785Z,126.20
2023-02-14T22:59:09.917Z,160.65
2023-02-14T23:01:38.181Z,233.32
2023-02-14T23:04:08.260Z,115.97
2023-02-14T23:06:37.892Z,114.10
2023-02-14T23:09:07.246Z,119.32
2023-02-14T23:11:37.317Z,192.35
2023-02-14T23:14:23.556Z,155.75
2023-02-14T23:17:20.792Z,199.68
2023-02-14T23:20:07.750Z,195.95
2023-02-14T23:22:37.198Z,154.50
2023-02-14T23:25:07.341Z,214.05
2023-02-14T23:27:37.789Z,118.10
2023-02-14T23:30:07.040Z,223.02
2023-02-14T23:32:35.342Z,85.78
2023-02-14T23:35:06.619Z,127.00
2023-02-14T23:37:34.885Z,125.93
2023-02-14T23:40:03.916Z,101.80
2023-02-14T23:42:32.169Z,149.75
2023-02-14T23:45:20.964Z,169.15
2023-02-14T23:47:49.336Z,229.77
2023-02-14T23:50:19.321Z,66.55
2023-02-14T23:52:47.519Z,114.28
2023-02-14T23:55:15.878Z,100.82
2023-02-14T23:57:44.062Z,128.38
